createdAt,value
2022-09-03T00:01:50.909Z,17.96
2022-09-03T00:06:07.780Z,17.92
2022-09-03T00:10:19.613Z,17.88
2022-09-03T00:14:58.158Z,17.84
2022-09-03T00:19:03.206Z,17.77
2022-09-03T00:23:07.511Z,17.71
2022-09-03T00:27:16.329Z,17.65
2022-09-03T00:31:22.077Z,17.58
2022-09-03T00:35:37.659Z,17.53
2022-09-03T00:39:39.384Z,17.47
2022-09-03T00:43:56.255Z,17.41
2022-09-03T00:48:10.352Z,17.35
2022-09-03T00:52:40.180Z,17.32
2022-09-03T00:56:59.408Z,17.30
2022-09-03T01:01:10.710Z,17.26
2022-09-03T01:05:41.130Z,17.21
2022-09-03T01:10:06.075Z,17.16
2022-09-03T01:14:30.585Z,17.07
2022-09-03T01:18:53.084Z,17.03
2022-09-03T01:23:09.760Z,17.01
2022-09-03T01:27:43.955Z,16.97
2022-09-03T01:32:11.941Z,16.95
2022-09-03T01:36:44.255Z,16.88
2022-09-03T01:41:29.306Z,16.84
2022-09-03T01:45:51.049Z,16.80
2022-09-03T01:50:05.042Z,16.77
2022-09-03T01:54:21.153Z,16.73
2022-09-03T01:58:32.333Z,16.68
2022-09-03T02:02:35.501Z,16.69
2022-09-03T02:06:37.970Z,16.76
2022-09-03T02:10:47.821Z,16.72
2022-09-03T02:14:49.558Z,16.71
2022-09-03T02:18:56.143Z,16.65
2022-09-03T02:22:59.081Z,16.58
2022-09-03T02:27:00.934Z,16.52
2022-09-03T02:31:02.948Z,16.50
2022-09-03T02:35:04.933Z,16.48
2022-09-03T02:39:06.917Z,16.43
2022-09-03T02:43:14.722Z,16.42
2022-09-03T02:47:16.360Z,16.39
2022-09-03T02:51:17.954Z,16.39
2022-09-03T02:55:20.358Z,16.37
2022-09-03T02:59:22.773Z,16.39
2022-09-03T03:03:25.006Z,16.36
2022-09-03T03:07:30.118Z,16.31
2022-09-03T03:11:31.963Z,16.27
2022-09-03T03:15:33.662Z,16.25
2022-09-03T03:19:35.342Z,16.28
2022-09-03T03:23:38.721Z,16.28
2022-09-03T03:27:41.822Z,16.20
2022-09-03T03:31:44.021Z,16.18
2022-09-03T03:35:45.730Z,16.17
2022-09-03T03:39:47.457Z,16.21
2022-09-03T03:43:54.955Z,16.22
2022-09-03T03:47:59.516Z,16.25
2022-09-03T03:52:03.199Z,16.23
2022-09-03T03:56:10.233Z,16.24
2022-09-03T04:00:12.545Z,16.22
2022-09-03T04:04:17.227Z,16.19
2022-09-03T04:08:18.864Z,16.16
2022-09-03T04:12:20.556Z,16.09
2022-09-03T04:16:25.740Z,16.05
2022-09-03T04:20:27.378Z,16.07
2022-09-03T04:24:29.023Z,16.06
2022-09-03T04:28:30.971Z,15.96
2022-09-03T04:32:50.860Z,15.86
2022-09-03T04:36:54.437Z,15.74
2022-09-03T04:40:56.139Z,15.66
2022-09-03T04:44:57.824Z,15.59
2022-09-03T04:48:59.770Z,15.54
2022-09-03T04:53:07.568Z,15.51
2022-09-03T04:57:10.450Z,15.51
2022-09-03T05:01:17.509Z,15.51
2022-09-03T05:05:19.816Z,15.54
2022-09-03T05:09:21.798Z,15.56
2022-09-03T05:13:23.467Z,15.61
2022-09-03T05:17:25.310Z,15.67
2022-09-03T05:21:28.921Z,15.71
2022-09-03T05:25:33.810Z,15.74
2022-09-03T05:29:35.414Z,15.84
2022-09-03T05:33:59.007Z,15.93
2022-09-03T05:38:00.842Z,15.99
2022-09-03T05:42:02.613Z,16.08
2022-09-03T05:46:09.845Z,16.17
2022-09-03T05:50:11.490Z,16.26
2022-09-03T05:54:13.147Z,16.31
2022-09-03T05:58:16.129Z,16.33
2022-09-03T06:02:19.839Z,16.38
2022-09-03T06:06:28.504Z,16.42
2022-09-03T06:10:40.245Z,16.47
2022-09-03T06:14:42.569Z,16.57
2022-09-03T06:18:44.290Z,16.62
2022-09-03T06:22:52.924Z,16.69
2022-09-03T06:26:54.637Z,16.79
2022-09-03T06:30:59.115Z,16.86
2022-09-03T06:35:00.709Z,16.93
2022-09-03T06:39:02.380Z,17.02
2022-09-03T06:43:04.468Z,17.11
2022-09-03T06:47:06.126Z,17.20
2022-09-03T06:51:13.528Z,17.30
2022-09-03T06:55:15.394Z,17.39
2022-09-03T06:59:17.065Z,17.48
2022-09-03T07:03:21.264Z,17.56
2022-09-03T07:07:22.877Z,17.63
2022-09-03T07:11:26.994Z,17.69
2022-09-03T07:15:28.613Z,17.81
2022-09-03T07:19:30.197Z,17.89
2022-09-03T07:23:33.097Z,18.00
2022-09-03T07:27:35.475Z,18.11
2022-09-03T07:31:40.031Z,18.18
2022-09-03T07:35:41.929Z,18.28
2022-09-03T07:39:43.906Z,18.37
2022-09-03T07:43:47.170Z,18.46
2022-09-03T07:47:49.958Z,18.55
2022-09-03T07:51:54.231Z,18.65
2022-09-03T07:56:10.857Z,18.75
2022-09-03T08:00:13.366Z,18.83
2022-09-03T08:04:14.987Z,18.91
2022-09-03T08:08:17.895Z,19.00
2022-09-03T08:12:19.617Z,19.07
2022-09-03T08:16:21.338Z,19.14
2022-09-03T08:20:23.087Z,19.22
2022-09-03T08:24:26.331Z,19.27
2022-09-03T08:28:28.107Z,19.32
2022-09-03T08:32:29.961Z,19.39
2022-09-03T08:36:33.871Z,19.45
2022-09-03T08:40:38.278Z,19.50
2022-09-03T08:44:40.052Z,19.56
2022-09-03T08:48:41.631Z,19.61
2022-09-03T08:52:53.250Z,19.70
2022-09-03T08:57:00.103Z,19.81
2022-09-03T09:01:06.825Z,19.88
2022-09-03T09:05:24.878Z,19.92
2022-09-03T09:09:42.508Z,19.97
2022-09-03T09:13:44.064Z,20.02
2022-09-03T09:17:48.724Z,20.08
2022-09-03T09:21:59.129Z,20.17
2022-09-03T09:26:10.017Z,20.23
2022-09-03T09:30:16.869Z,20.31
2022-09-03T09:34:19.005Z,20.39
2022-09-03T09:38:33.289Z,20.49
2022-09-03T09:42:35.010Z,20.53
2022-09-03T09:46:39.648Z,20.63
2022-09-03T09:50:41.433Z,20.69
2022-09-03T09:54:48.014Z,20.73
2022-09-03T09:58:49.760Z,20.81
2022-09-03T10:02:57.050Z,20.87
2022-09-03T10:07:22.892Z,20.92
2022-09-03T10:11:25.676Z,20.98
2022-09-03T10:15:49.267Z,21.05
2022-09-03T10:20:27.909Z,21.19
2022-09-03T10:24:39.651Z,21.28
2022-09-03T10:28:42.852Z,21.46
2022-09-03T10:32:51.622Z,21.49
2022-09-03T10:36:56.402Z,21.70
2022-09-03T10:41:30.063Z,21.79
2022-09-03T10:46:13.601Z,21.85
2022-09-03T10:50:17.429Z,21.94
2022-09-03T10:54:20.747Z,22.13
2022-09-03T10:58:46.688Z,22.21
2022-09-03T11:03:12.594Z,22.31
2022-09-03T11:07:17.260Z,22.42
2022-09-03T11:11:26.622Z,22.42
2022-09-03T11:15:36.741Z,22.43
2022-09-03T11:19:47.654Z,22.45
2022-09-03T11:24:02.649Z,22.49
2022-09-03T11:28:33.390Z,22.55
2022-09-03T11:32:46.817Z,22.61
2022-09-03T11:36:48.481Z,22.65
2022-09-03T11:40:59.288Z,22.75
2022-09-03T11:45:14.795Z,22.79
2022-09-03T11:49:28.374Z,22.91
2022-09-03T11:53:36.819Z,22.96
2022-09-03T11:57:43.741Z,23.01
2022-09-03T12:02:02.259Z,23.10
2022-09-03T12:06:07.116Z,23.23
2022-09-03T12:10:51.618Z,23.30
2022-09-03T12:15:23.914Z,23.33
2022-09-03T12:20:01.218Z,23.35
2022-09-03T12:24:03.095Z,23.42
2022-09-03T12:28:13.134Z,23.54
2022-09-03T12:32:16.145Z,23.56
2022-09-03T12:36:18.177Z,23.55
2022-09-03T12:40:22.936Z,23.65
2022-09-03T12:44:31.330Z,23.72
2022-09-03T12:48:33.093Z,23.76
2022-09-03T12:52:55.190Z,23.83
2022-09-03T12:56:59.634Z,23.88
2022-09-03T13:01:33.567Z,23.90
2022-09-03T13:05:46.928Z,23.92
2022-09-03T13:09:49.137Z,24.00
2022-09-03T13:14:12.198Z,24.00
2022-09-03T13:18:33.817Z,24.03
2022-09-03T13:22:41.527Z,24.13
2022-09-03T13:27:17.874Z,24.21
2022-09-03T13:31:43.714Z,24.23
2022-09-03T13:35:54.993Z,24.30
2022-09-03T13:40:18.708Z,24.28
2022-09-03T13:44:35.774Z,24.30
2022-09-03T13:48:59.262Z,24.41
2022-09-03T13:53:32.367Z,24.41
2022-09-03T13:57:53.265Z,24.50
2022-09-03T14:02:07.774Z,24.58
2022-09-03T14:06:38.637Z,24.61
2022-09-03T14:11:02.086Z,24.63
2022-09-03T14:15:19.049Z,24.70
2022-09-03T14:19:39.265Z,24.70
2022-09-03T14:23:46.781Z,24.71
2022-09-03T14:27:50.364Z,24.78
2022-09-03T14:32:16.562Z,24.81
2022-09-03T14:36:18.125Z,24.83
2022-09-03T14:40:26.506Z,24.85
2022-09-03T14:44:36.101Z,24.88
2022-09-03T14:48:40.781Z,24.90
2022-09-03T14:53:12.021Z,24.99
2022-09-03T14:57:22.549Z,25.05
2022-09-03T15:01:37.613Z,25.07
2022-09-03T15:05:48.864Z,25.12
2022-09-03T15:10:28.857Z,25.11
2022-09-03T15:14:40.095Z,25.12
2022-09-03T15:19:01.857Z,25.14
2022-09-03T15:23:11.875Z,25.21
2022-09-03T15:27:32.414Z,25.27
2022-09-03T15:32:04.936Z,25.29
2022-09-03T15:36:17.679Z,25.29
2022-09-03T15:40:22.363Z,25.30
2022-09-03T15:44:26.006Z,25.31
2022-09-03T15:48:45.291Z,25.33
2022-09-03T15:53:25.458Z,25.34
2022-09-03T15:57:54.798Z,25.34
2022-09-03T16:02:08.338Z,25.34
2022-09-03T16:06:28.131Z,25.33
2022-09-03T16:10:42.648Z,25.30
2022-09-03T16:15:12.601Z,25.26
2022-09-03T16:19:36.594Z,25.23
2022-09-03T16:23:56.479Z,25.19
2022-09-03T16:28:11.441Z,25.17
2022-09-03T16:32:42.161Z,25.14
2022-09-03T16:36:49.236Z,25.12
2022-09-03T16:40:56.217Z,25.12
2022-09-03T16:45:29.807Z,25.17
2022-09-03T16:49:55.948Z,25.18
2022-09-03T16:54:15.600Z,25.15
2022-09-03T16:58:36.018Z,25.10
2022-09-03T17:03:05.270Z,25.07
2022-09-03T17:07:33.303Z,25.04
2022-09-03T17:11:56.239Z,25.00
2022-09-03T17:16:25.020Z,24.93
2022-09-03T17:20:29.778Z,24.85
2022-09-03T17:24:39.890Z,24.76
2022-09-03T17:29:00.175Z,24.67
2022-09-03T17:33:04.424Z,24.57
2022-09-03T17:37:44.814Z,24.47
2022-09-03T17:41:48.201Z,24.35
2022-09-03T17:46:08.569Z,24.22
2022-09-03T17:50:27.780Z,24.12
2022-09-03T17:54:32.359Z,24.04
2022-09-03T17:58:51.924Z,23.94
2022-09-03T18:03:23.591Z,23.86
2022-09-03T18:07:41.645Z,23.74
2022-09-03T18:12:20.541Z,23.65
2022-09-03T18:16:31.853Z,23.56
2022-09-03T18:21:22.367Z,23.47
2022-09-03T18:25:47.209Z,23.38
2022-09-03T18:30:12.857Z,23.28
2022-09-03T18:34:33.009Z,23.18
2022-09-03T18:38:56.307Z,23.10
2022-09-03T18:43:31.792Z,23.02
2022-09-03T18:48:21.254Z,22.92
2022-09-03T18:53:13.595Z,22.85
2022-09-03T18:58:06.183Z,22.75
2022-09-03T19:02:51.762Z,22.68
2022-09-03T19:07:27.593Z,22.62
2022-09-03T19:11:55.491Z,22.57
2022-09-03T19:16:31.791Z,22.54
2022-09-03T19:20:54.716Z,22.51
2022-09-03T19:25:30.945Z,22.47
2022-09-03T19:30:20.419Z,22.44
2022-09-03T19:34:56.981Z,22.39
2022-09-03T19:39:25.006Z,22.34
2022-09-03T19:44:01.773Z,22.26
2022-09-03T19:48:59.510Z,22.23
2022-09-03T19:53:28.426Z,22.17
2022-09-03T19:57:50.109Z,22.12
2022-09-03T20:02:11.312Z,22.06
2022-09-03T20:06:32.494Z,22.01
2022-09-03T20:10:36.091Z,21.96
2022-09-03T20:14:37.814Z,21.93
2022-09-03T20:18:57.394Z,21.89
2022-09-03T20:23:16.709Z,21.85
2022-09-03T20:27:33.397Z,21.79
2022-09-03T20:31:53.971Z,21.74
2022-09-03T20:36:24.034Z,21.69
2022-09-03T20:40:53.912Z,21.63
2022-09-03T20:44:58.635Z,21.60
2022-09-03T20:49:21.863Z,21.56
2022-09-03T20:53:33.955Z,21.50
2022-09-03T20:58:00.156Z,21.46
2022-09-03T21:02:53.385Z,21.39
2022-09-03T21:07:10.154Z,21.32
2022-09-03T21:11:19.121Z,21.21
2022-09-03T21:15:26.771Z,21.12
2022-09-03T21:19:46.314Z,21.04
2022-09-03T21:24:04.249Z,20.96
2022-09-03T21:28:14.849Z,20.90
2022-09-03T21:32:30.452Z,20.79
2022-09-03T21:36:35.114Z,20.74
2022-09-03T21:40:43.577Z,20.71
2022-09-03T21:44:58.208Z,20.69
2022-09-03T21:49:10.950Z,20.66
2022-09-03T21:53:19.875Z,20.62
2022-09-03T21:57:27.449Z,20.49
2022-09-03T22:01:55.037Z,20.41
2022-09-03T22:06:03.051Z,20.34
2022-09-03T22:10:33.782Z,20.23
2022-09-03T22:14:55.676Z,20.16
2022-09-03T22:18:58.495Z,20.10
2022-09-03T22:23:11.812Z,19.99
2022-09-03T22:28:00.710Z,19.93
2022-09-03T22:32:25.230Z,19.88
2022-09-03T22:36:38.007Z,19.82
2022-09-03T22:40:52.705Z,19.76
2022-09-03T22:45:00.349Z,19.70
2022-09-03T22:49:17.719Z,19.69
2022-09-03T22:53:45.998Z,19.63
2022-09-03T22:58:01.228Z,19.64
2022-09-03T23:02:13.011Z,19.59
2022-09-03T23:06:25.311Z,19.59
2022-09-03T23:10:33.989Z,19.56
2022-09-03T23:14:51.481Z,19.51
2022-09-03T23:18:54.139Z,19.50
2022-09-03T23:23:20.154Z,19.50
2022-09-03T23:27:42.253Z,19.51
2022-09-03T23:31:44.031Z,19.46
2022-09-03T23:35:58.279Z,19.43
2022-09-03T23:40:17.908Z,19.37
2022-09-03T23:44:36.963Z,19.35
2022-09-03T23:49:09.881Z,19.32
2022-09-03T23:53:28.357Z,19.33
2022-09-03T23:57:40.089Z,19.31
